sensor_id;sensor_type;location;lat;lon;timestamp;P1;durP1;ratioP1;P2;durP2;ratioP2
74851;SDS011;63400;50.650;6.832;2023-03-14T00:02:05;2.53;;;0.80;;
74851;SDS011;63400;50.650;6.832;2023-03-14T00:04:31;4.32;;;0.30;;
74851;SDS011;63400;50.650;6.832;2023-03-14T00:06:57;4.10;;;1.25;;
74851;SDS011;63400;50.650;6.832;2023-03-14T00:09:23;3.70;;;0.63;;
74851;SDS011;63400;50.650;6.832;2023-03-14T00:11:48;2.17;;;1.25;;
74851;SDS011;63400;50.650;6.832;2023-03-14T00:14:14;3.53;;;1.42;;
74851;SDS011;63400;50.650;6.832;2023-03-14T00:16:40;1.88;;;0.80;;
74851;SDS011;63400;50.650;6.832;2023-03-14T00:19:06;2.95;;;0.88;;
74851;SDS011;63400;50.650;6.832;2023-03-14T00:21:31;2.03;;;0.40;;
74851;SDS011;63400;50.650;6.832;2023-03-14T00:23:57;4.78;;;1.27;;
74851;SDS011;63400;50.650;6.832;2023-03-14T00:26:22;2.03;;;0.85;;
74851;SDS011;63400;50.650;6.832;2023-03-14T00:28:51;1.23;;;0.47;;
74851;SDS011;63400;50.650;6.832;2023-03-14T00:31:17;3.55;;;0.95;;
74851;SDS011;63400;50.650;6.832;2023-03-14T00:33:43;2.47;;;0.63;;
74851;SDS011;63400;50.650;6.832;2023-03-14T00:36:10;2.95;;;0.28;;
74851;SDS011;63400;50.650;6.832;2023-03-14T00:38:39;2.60;;;0.52;;
74851;SDS011;63400;50.650;6.832;2023-03-14T00:41:07;5.18;;;1.10;;
74851;SDS011;63400;50.650;6.832;2023-03-14T00:43:34;2.65;;;0.90;;
74851;SDS011;63400;50.650;6.832;2023-03-14T00:46:00;4.13;;;0.73;;
74851;SDS011;63400;50.650;6.832;2023-03-14T00:48:26;5.88;;;0.50;;
74851;SDS011;63400;50.650;6.832;2023-03-14T00:50:52;3.88;;;1.08;;
74851;SDS011;63400;50.650;6.832;2023-03-14T00:53:17;3.22;;;0.63;;
74851;SDS011;63400;50.650;6.832;2023-03-14T00:55:43;2.95;;;0.35;;
74851;SDS011;63400;50.650;6.832;2023-03-14T00:58:09;3.58;;;0.60;;
74851;SDS011;63400;50.650;6.832;2023-03-14T01:00:36;2.90;;;0.75;;
74851;SDS011;63400;50.650;6.832;2023-03-14T01:03:01;6.10;;;1.08;;
74851;SDS011;63400;50.650;6.832;2023-03-14T01:05:27;5.88;;;0.90;;
74851;SDS011;63400;50.650;6.832;2023-03-14T01:07:53;4.20;;;1.13;;
74851;SDS011;63400;50.650;6.832;2023-03-14T01:10:18;4.50;;;0.90;;
74851;SDS011;63400;50.650;6.832;2023-03-14T01:12:44;6.18;;;0.57;;
74851;SDS011;63400;50.650;6.832;2023-03-14T01:15:10;4.05;;;0.52;;
74851;SDS011;63400;50.650;6.832;2023-03-14T01:17:36;2.75;;;0.75;;
74851;SDS011;63400;50.650;6.832;2023-03-14T01:20:05;4.10;;;1.40;;
74851;SDS011;63400;50.650;6.832;2023-03-14T01:22:34;2.22;;;0.30;;
74851;SDS011;63400;50.650;6.832;2023-03-14T01:25:00;3.03;;;0.70;;
74851;SDS011;63400;50.650;6.832;2023-03-14T01:27:25;2.10;;;0.43;;
74851;SDS011;63400;50.650;6.832;2023-03-14T01:29:51;4.35;;;0.60;;
74851;SDS011;63400;50.650;6.832;2023-03-14T01:32:17;2.80;;;0.63;;
74851;SDS011;63400;50.650;6.832;2023-03-14T01:34:42;3.70;;;0.43;;
74851;SDS011;63400;50.650;6.832;2023-03-14T01:37:08;4.78;;;0.68;;
74851;SDS011;63400;50.650;6.832;2023-03-14T01:39:33;2.28;;;0.60;;
74851;SDS011;63400;50.650;6.832;2023-03-14T01:42:00;3.55;;;0.68;;
74851;SDS011;63400;50.650;6.832;2023-03-14T01:44:26;5.75;;;0.85;;
74851;SDS011;63400;50.650;6.832;2023-03-14T01:46:51;3.22;;;1.00;;
74851;SDS011;63400;50.650;6.832;2023-03-14T01:49:19;2.88;;;0.30;;
74851;SDS011;63400;50.650;6.832;2023-03-14T01:54:34;2.65;;;0.47;;
74851;SDS011;63400;50.650;6.832;2023-03-14T01:57:11;3.92;;;1.15;;
74851;SDS011;63400;50.650;6.832;2023-03-14T01:59:38;2.33;;;0.45;;
74851;SDS011;63400;50.650;6.832;2023-03-14T02:02:05;1.95;;;0.85;;
74851;SDS011;63400;50.650;6.832;2023-03-14T02:07:00;2.05;;;0.55;;
74851;SDS011;63400;50.650;6.832;2023-03-14T02:09:31;1.77;;;0.47;;
74851;SDS011;63400;50.650;6.832;2023-03-14T02:11:57;1.05;;;0.40;;
74851;SDS011;63400;50.650;6.832;2023-03-14T02:14:33;3.20;;;0.28;;
74851;SDS011;63400;50.650;6.832;2023-03-14T02:17:00;2.40;;;0.70;;
74851;SDS011;63400;50.650;6.832;2023-03-14T02:19:31;2.53;;;0.55;;
74851;SDS011;63400;50.650;6.832;2023-03-14T02:22:16;4.68;;;1.13;;
74851;SDS011;63400;50.650;6.832;2023-03-14T02:27:26;7.22;;;1.35;;
74851;SDS011;63400;50.650;6.832;2023-03-14T02:29:53;3.97;;;0.82;;
74851;SDS011;63400;50.650;6.832;2023-03-14T02:32:22;7.25;;;0.63;;
74851;SDS011;63400;50.650;6.832;2023-03-14T02:34:50;4.93;;;0.90;;
74851;SDS011;63400;50.650;6.832;2023-03-14T02:37:19;4.57;;;0.68;;
74851;SDS011;63400;50.650;6.832;2023-03-14T02:39:46;5.32;;;0.98;;
74851;SDS011;63400;50.650;6.832;2023-03-14T02:42:14;3.83;;;0.75;;
74851;SDS011;63400;50.650;6.832;2023-03-14T02:45:01;3.63;;;;;
74851;SDS011;63400;50.650;6.832;2023-03-14T02:47:47;1.95;;;0.52;;
74851;SDS011;63400;50.650;6.832;2023-03-14T02:50:20;4.05;;;1.58;;
74851;SDS011;63400;50.650;6.832;2023-03-14T02:52:46;2.95;;;0.52;;
74851;SDS011;63400;50.650;6.832;2023-03-14T02:55:12;4.40;;;0.60;;
74851;SDS011;63400;50.650;6.832;2023-03-14T02:57:37;3.55;;;0.47;;
74851;SDS011;63400;50.650;6.832;2023-03-14T03:00:03;4.07;;;0.95;;
74851;SDS011;63400;50.650;6.832;2023-03-14T03:02:30;3.65;;;0.47;;
74851;SDS011;63400;50.650;6.832;2023-03-14T03:04:55;3.38;;;0.55;;
74851;SDS011;63400;50.650;6.832;2023-03-14T03:07:21;4.07;;;0.30;;
74851;SDS011;63400;50.650;6.832;2023-03-14T03:09:46;2.50;;;0.73;;
74851;SDS011;63400;50.650;6.832;2023-03-14T03:12:12;2.88;;;0.70;;
74851;SDS011;63400;50.650;6.832;2023-03-14T03:14:37;2.72;;;0.52;;
74851;SDS011;63400;50.650;6.832;2023-03-14T03:17:04;7.38;;;1.13;;
74851;SDS011;63400;50.650;6.832;2023-03-14T03:19:30;3.92;;;0.68;;
74851;SDS011;63400;50.650;6.832;2023-03-14T03:21:56;5.50;;;1.00;;
74851;SDS011;63400;50.650;6.832;2023-03-14T03:24:22;3.08;;;0.68;;
74851;SDS011;63400;50.650;6.832;2023-03-14T03:26:48;2.78;;;0.60;;
74851;SDS011;63400;50.650;6.832;2023-03-14T03:29:13;5.00;;;0.88;;
74851;SDS011;63400;50.650;6.832;2023-03-14T03:31:39;2.72;;;0.40;;
74851;SDS011;63400;50.650;6.832;2023-03-14T03:34:04;3.53;;;0.52;;
74851;SDS011;63400;50.650;6.832;2023-03-14T03:36:30;1.55;;;0.20;;
74851;SDS011;63400;50.650;6.832;2023-03-14T03:38:55;2.75;;;0.60;;
74851;SDS011;63400;50.650;6.832;2023-03-14T03:41:21;3.30;;;0.40;;
74851;SDS011;63400;50.650;6.832;2023-03-14T03:43:46;3.08;;;0.60;;
74851;SDS011;63400;50.650;6.832;2023-03-14T03:46:12;3.75;;;0.73;;
74851;SDS011;63400;50.650;6.832;2023-03-14T03:48:37;2.20;;;0.50;;
74851;SDS011;63400;50.650;6.832;2023-03-14T03:51:03;1.50;;;0.40;;
74851;SDS011;63400;50.650;6.832;2023-03-14T03:53:29;1.30;;;0.20;;
74851;SDS011;63400;50.650;6.832;2023-03-14T03:55:54;3.65;;;0.57;;
74851;SDS011;63400;50.650;6.832;2023-03-14T03:58:20;1.95;;;0.28;;
74851;SDS011;63400;50.650;6.832;2023-03-14T04:00:45;3.78;;;0.52;;
74851;SDS011;63400;50.650;6.832;2023-03-14T04:03:11;2.88;;;0.93;;
74851;SDS011;63400;50.650;6.832;2023-03-14T04:05:36;2.35;;;0.50;;
74851;SDS011;63400;50.650;6.832;2023-03-14T04:08:02;3.75;;;0.40;;
74851;SDS011;63400;50.650;6.832;2023-03-14T04:10:28;2.15;;;0.85;;
74851;SDS011;63400;50.650;6.832;2023-03-14T04:12:54;1.58;;;0.70;;
74851;SDS011;63400;50.650;6.832;2023-03-14T04:15:19;2.08;;;0.20;;
74851;SDS011;63400;50.650;6.832;2023-03-14T04:17:45;3.25;;;0.68;;
74851;SDS011;63400;50.650;6.832;2023-03-14T04:20:10;1.70;;;0.40;;
74851;SDS011;63400;50.650;6.832;2023-03-14T04:22:37;2.03;;;0.60;;
74851;SDS011;63400;50.650;6.832;2023-03-14T04:25:03;1.65;;;0.35;;
74851;SDS011;63400;50.650;6.832;2023-03-14T04:27:29;4.07;;;0.25;;
74851;SDS011;63400;50.650;6.832;2023-03-14T04:29:55;1.25;;;0.20;;
74851;SDS011;63400;50.650;6.832;2023-03-14T04:32:20;0.50;;;0.13;;
74851;SDS011;63400;50.650;6.832;2023-03-14T04:34:46;0.68;;;0.00;;
74851;SDS011;63400;50.650;6.832;2023-03-14T04:37:11;0.98;;;0.20;;
74851;SDS011;63400;50.650;6.832;2023-03-14T04:39:37;1.52;;;0.20;;
74851;SDS011;63400;50.650;6.832;2023-03-14T04:42:03;1.27;;;0.20;;
74851;SDS011;63400;50.650;6.832;2023-03-14T04:44:28;0.55;;;0.40;;
74851;SDS011;63400;50.650;6.832;2023-03-14T04:46:54;0.45;;;0.20;;
74851;SDS011;63400;50.650;6.832;2023-03-14T04:49:19;0.90;;;0.20;;
74851;SDS011;63400;50.650;6.832;2023-03-14T04:51:45;0.90;;;0.20;;
74851;SDS011;63400;50.650;6.832;2023-03-14T04:54:10;0.45;;;0.45;;
74851;SDS011;63400;50.650;6.832;2023-03-14T04:56:36;0.60;;;0.10;;
74851;SDS011;63400;50.650;6.832;2023-03-14T04:59:02;0.40;;;0.17;;
74851;SDS011;63400;50.650;6.832;2023-03-14T05:01:28;0.40;;;0.20;;
74851;SDS011;63400;50.650;6.832;2023-03-14T05:03:53;0.38;;;0.00;;
74851;SDS011;63400;50.650;6.832;2023-03-14T05:06:19;0.57;;;0.22;;
74851;SDS011;63400;50.650;6.832;2023-03-14T05:08:44;0.80;;;0.13;;
74851;SDS011;63400;50.650;6.832;2023-03-14T05:11:10;0.75;;;0.05;;
74851;SDS011;63400;50.650;6.832;2023-03-14T05:13:36;0.85;;;0.40;;
74851;SDS011;63400;50.650;6.832;2023-03-14T05:16:08;0.47;;;0.10;;
74851;SDS011;63400;50.650;6.832;2023-03-14T05:18:40;0.10;;;0.10;;
74851;SDS011;63400;50.650;6.832;2023-03-14T05:21:06;1.55;;;0.40;;
74851;SDS011;63400;50.650;6.832;2023-03-14T05:23:31;0.50;;;0.13;;
74851;SDS011;63400;50.650;6.832;2023-03-14T05:25:57;0.68;;;0.20;;
74851;SDS011;63400;50.650;6.832;2023-03-14T05:28:22;0.32;;;0.20;;
74851;SDS011;63400;50.650;6.832;2023-03-14T05:30:48;1.40;;;0.40;;
74851;SDS011;63400;50.650;6.832;2023-03-14T05:33:13;0.57;;;0.52;;
74851;SDS011;63400;50.650;6.832;2023-03-14T05:35:39;0.55;;;0.25;;
74851;SDS011;63400;50.650;6.832;2023-03-14T05:38:04;1.75;;;0.15;;
74851;SDS011;63400;50.650;6.832;2023-03-14T05:40:30;0.30;;;0.00;;
74851;SDS011;63400;50.650;6.832;2023-03-14T05:42:55;0.60;;;0.20;;
74851;SDS011;63400;50.650;6.832;2023-03-14T05:45:21;0.20;;;0.17;;
74851;SDS011;63400;50.650;6.832;2023-03-14T05:47:47;0.82;;;0.20;;
74851;SDS011;63400;50.650;6.832;2023-03-14T05:50:12;1.00;;;0.20;;
74851;SDS011;63400;50.650;6.832;2023-03-14T05:52:38;1.55;;;0.45;;
74851;SDS011;63400;50.650;6.832;2023-03-14T05:55:04;0.43;;;0.20;;
74851;SDS011;63400;50.650;6.832;2023-03-14T05:57:30;0.22;;;0.20;;
74851;SDS011;63400;50.650;6.832;2023-03-14T05:59:55;1.13;;;0.10;;
74851;SDS011;63400;50.650;6.832;2023-03-14T06:02:21;0.32;;;0.20;;
74851;SDS011;63400;50.650;6.832;2023-03-14T06:04:46;0.40;;;0.10;;
74851;SDS011;63400;50.650;6.832;2023-03-14T06:07:12;0.20;;;0.10;;
74851;SDS011;63400;50.650;6.832;2023-03-14T06:09:37;0.85;;;0.17;;
74851;SDS011;63400;50.650;6.832;2023-03-14T06:12:18;0.85;;;0.17;;
74851;SDS011;63400;50.650;6.832;2023-03-14T06:14:44;3.13;;;0.30;;
74851;SDS011;63400;50.650;6.832;2023-03-14T06:17:09;0.88;;;0.30;;
74851;SDS011;63400;50.650;6.832;2023-03-14T06:19:35;0.55;;;0.25;;
74851;SDS011;63400;50.650;6.832;2023-03-14T06:22:00;0.45;;;0.35;;
74851;SDS011;63400;50.650;6.832;2023-03-14T06:24:26;0.17;;;0.10;;
74851;SDS011;63400;50.650;6.832;2023-03-14T06:26:51;1.08;;;0.13;;
74851;SDS011;63400;50.650;6.832;2023-03-14T06:29:17;0.88;;;0.28;;
74851;SDS011;63400;50.650;6.832;2023-03-14T06:31:42;0.30;;;0.00;;
74851;SDS011;63400;50.650;6.832;2023-03-14T06:34:08;1.05;;;0.30;;
74851;SDS011;63400;50.650;6.832;2023-03-14T06:36:33;0.32;;;0.10;;
74851;SDS011;63400;50.650;6.832;2023-03-14T06:38:58;0.45;;;0.20;;
74851;SDS011;63400;50.650;6.832;2023-03-14T06:41:28;0.68;;;0.32;;
74851;SDS011;63400;50.650;6.832;2023-03-14T06:43:54;0.60;;;0.20;;
74851;SDS011;63400;50.650;6.832;2023-03-14T06:46:19;0.30;;;0.28;;
74851;SDS011;63400;50.650;6.832;2023-03-14T06:48:45;0.28;;;0.20;;
74851;SDS011;63400;50.650;6.832;2023-03-14T06:51:10;1.67;;;0.30;;
74851;SDS011;63400;50.650;6.832;2023-03-14T06:53:36;0.35;;;0.20;;
74851;SDS011;63400;50.650;6.832;2023-03-14T06:56:01;1.58;;;0.10;;
74851;SDS011;63400;50.650;6.832;2023-03-14T06:58:28;0.30;;;0.20;;
74851;SDS011;63400;50.650;6.832;2023-03-14T07:03:27;0.63;;;0.25;;
74851;SDS011;63400;50.650;6.832;2023-03-14T07:05:59;0.50;;;0.50;;
74851;SDS011;63400;50.650;6.832;2023-03-14T07:08:24;0.17;;;0.15;;
74851;SDS011;63400;50.650;6.832;2023-03-14T07:10:50;0.20;;;0.20;;
74851;SDS011;63400;50.650;6.832;2023-03-14T07:13:17;0.50;;;0.15;;
74851;SDS011;63400;50.650;6.832;2023-03-14T07:15:43;0.57;;;0.57;;
74851;SDS011;63400;50.650;6.832;2023-03-14T07:18:08;0.25;;;0.20;;
74851;SDS011;63400;50.650;6.832;2023-03-14T07:20:34;0.20;;;0.13;;
74851;SDS011;63400;50.650;6.832;2023-03-14T07:22:59;0.35;;;0.10;;
74851;SDS011;63400;50.650;6.832;2023-03-14T07:25:25;1.10;;;0.30;;
74851;SDS011;63400;50.650;6.832;2023-03-14T07:27:51;0.60;;;0.20;;
74851;SDS011;63400;50.650;6.832;2023-03-14T07:30:18;0.50;;;0.10;;
74851;SDS011;63400;50.650;6.832;2023-03-14T07:32:43;0.20;;;0.20;;
74851;SDS011;63400;50.650;6.832;2023-03-14T07:35:09;0.65;;;0.65;;
74851;SDS011;63400;50.650;6.832;2023-03-14T07:37:35;0.17;;;0.10;;
74851;SDS011;63400;50.650;6.832;2023-03-14T07:40:00;0.32;;;0.30;;
74851;SDS011;63400;50.650;6.832;2023-03-14T07:42:26;0.35;;;0.10;;
74851;SDS011;63400;50.650;6.832;2023-03-14T07:44:51;0.15;;;0.10;;
74851;SDS011;63400;50.650;6.832;2023-03-14T07:47:17;0.47;;;0.10;;
74851;SDS011;63400;50.650;6.832;2023-03-14T07:49:42;0.10;;;0.00;;
74851;SDS011;63400;50.650;6.832;2023-03-14T07:52:08;0.10;;;0.00;;
74851;SDS011;63400;50.650;6.832;2023-03-14T07:54:36;0.10;;;0.08;;
74851;SDS011;63400;50.650;6.832;2023-03-14T07:57:02;0.43;;;0.10;;
74851;SDS011;63400;50.650;6.832;2023-03-14T07:59:28;0.20;;;0.20;;
74851;SDS011;63400;50.650;6.832;2023-03-14T08:01:54;0.93;;;0.17;;
74851;SDS011;63400;50.650;6.832;2023-03-14T08:04:19;0.28;;;0.28;;
74851;SDS011;63400;50.650;6.832;2023-03-14T08:06:45;0.10;;;0.10;;
74851;SDS011;63400;50.650;6.832;2023-03-14T08:09:10;0.10;;;0.10;;
74851;SDS011;63400;50.650;6.832;2023-03-14T08:11:36;2.05;;;0.63;;
74851;SDS011;63400;50.650;6.832;2023-03-14T08:14:04;0.32;;;0.10;;
74851;SDS011;63400;50.650;6.832;2023-03-14T08:16:30;0.30;;;0.10;;
74851;SDS011;63400;50.650;6.832;2023-03-14T08:18:56;0.90;;;0.20;;
74851;SDS011;63400;50.650;6.832;2023-03-14T08:21:23;0.10;;;0.10;;
74851;SDS011;63400;50.650;6.832;2023-03-14T08:23:49;0.52;;;0.17;;
74851;SDS011;63400;50.650;6.832;2023-03-14T08:26:16;0.70;;;0.20;;
74851;SDS011;63400;50.650;6.832;2023-03-14T08:28:42;0.35;;;0.35;;
74851;SDS011;63400;50.650;6.832;2023-03-14T08:33:36;0.20;;;0.10;;
74851;SDS011;63400;50.650;6.832;2023-03-14T08:36:03;1.13;;;0.20;;
74851;SDS011;63400;50.650;6.832;2023-03-14T08:38:29;0.25;;;0.20;;
74851;SDS011;63400;50.650;6.832;2023-03-14T08:40:55;0.50;;;0.17;;
74851;SDS011;63400;50.650;6.832;2023-03-14T08:43:22;0.20;;;0.08;;
74851;SDS011;63400;50.650;6.832;2023-03-14T08:45:48;0.10;;;0.10;;
74851;SDS011;63400;50.650;6.832;2023-03-14T08:48:13;0.45;;;0.20;;
74851;SDS011;63400;50.650;6.832;2023-03-14T08:50:39;0.32;;;0.22;;
74851;SDS011;63400;50.650;6.832;2023-03-14T08:53:05;0.68;;;0.20;;
74851;SDS011;63400;50.650;6.832;2023-03-14T08:55:30;0.85;;;0.30;;
74851;SDS011;63400;50.650;6.832;2023-03-14T08:57:58;0.80;;;0.10;;
74851;SDS011;63400;50.650;6.832;2023-03-14T09:00:26;0.20;;;0.00;;
74851;SDS011;63400;50.650;6.832;2023-03-14T09:02:52;0.45;;;0.10;;
74851;SDS011;63400;50.650;6.832;2023-03-14T09:05:17;0.75;;;0.10;;
74851;SDS011;63400;50.650;6.832;2023-03-14T09:07:43;0.32;;;0.20;;
74851;SDS011;63400;50.650;6.832;2023-03-14T09:10:09;0.32;;;0.13;;
74851;SDS011;63400;50.650;6.832;2023-03-14T09:12:35;0.57;;;0.20;;
74851;SDS011;63400;50.650;6.832;2023-03-14T09:15:01;0.40;;;0.10;;
74851;SDS011;63400;50.650;6.832;2023-03-14T09:17:27;0.10;;;0.00;;
74851;SDS011;63400;50.650;6.832;2023-03-14T09:19:53;0.20;;;0.00;;
74851;SDS011;63400;50.650;6.832;2023-03-14T09:22:19;0.80;;;0.15;;
74851;SDS011;63400;50.650;6.832;2023-03-14T09:27:11;0.90;;;0.08;;
74851;SDS011;63400;50.650;6.832;2023-03-14T09:29:37;0.50;;;0.30;;
74851;SDS011;63400;50.650;6.832;2023-03-14T09:32:02;1.27;;;0.20;;
74851;SDS011;63400;50.650;6.832;2023-03-14T09:34:28;0.38;;;0.25;;
74851;SDS011;63400;50.650;6.832;2023-03-14T09:36:54;1.48;;;0.57;;
74851;SDS011;63400;50.650;6.832;2023-03-14T09:39:19;0.80;;;0.35;;
74851;SDS011;63400;50.650;6.832;2023-03-14T09:41:48;0.40;;;0.40;;
74851;SDS011;63400;50.650;6.832;2023-03-14T09:47:05;0.63;;;0.20;;
74851;SDS011;63400;50.650;6.832;2023-03-14T09:49:33;0.80;;;0.43;;
74851;SDS011;63400;50.650;6.832;2023-03-14T09:52:00;0.30;;;0.17;;
74851;SDS011;63400;50.650;6.832;2023-03-14T09:57:04;0.30;;;0.20;;
74851;SDS011;63400;50.650;6.832;2023-03-14T09:59:31;0.43;;;0.10;;
74851;SDS011;63400;50.650;6.832;2023-03-14T10:02:10;1.63;;;0.20;;
74851;SDS011;63400;50.650;6.832;2023-03-14T10:04:43;0.45;;;0.20;;
74851;SDS011;63400;50.650;6.832;2023-03-14T10:07:20;0.40;;;0.10;;
74851;SDS011;63400;50.650;6.832;2023-03-14T10:09:49;0.45;;;0.10;;
74851;SDS011;63400;50.650;6.832;2023-03-14T10:12:16;1.35;;;0.20;;
74851;SDS011;63400;50.650;6.832;2023-03-14T10:14:50;1.25;;;0.43;;
74851;SDS011;63400;50.650;6.832;2023-03-14T10:17:17;1.20;;;0.73;;
74851;SDS011;63400;50.650;6.832;2023-03-14T10:19:55;2.08;;;0.38;;
74851;SDS011;63400;50.650;6.832;2023-03-14T10:22:23;0.73;;;0.30;;
74851;SDS011;63400;50.650;6.832;2023-03-14T10:24:56;0.60;;;0.25;;
74851;SDS011;63400;50.650;6.832;2023-03-14T10:27:28;2.15;;;0.45;;
74851;SDS011;63400;50.650;6.832;2023-03-14T10:29:56;0.85;;;0.35;;
74851;SDS011;63400;50.650;6.832;2023-03-14T10:32:45;0.40;;;0.30;;
74851;SDS011;63400;50.650;6.832;2023-03-14T10:38:01;0.70;;;0.60;;
74851;SDS011;63400;50.650;6.832;2023-03-14T10:40:37;0.80;;;0.40;;
74851;SDS011;63400;50.650;6.832;2023-03-14T10:43:04;0.93;;;0.68;;
74851;SDS011;63400;50.650;6.832;2023-03-14T10:45:38;0.77;;;0.47;;
74851;SDS011;63400;50.650;6.832;2023-03-14T10:51:04;0.75;;;0.70;;
74851;SDS011;63400;50.650;6.832;2023-03-14T10:53:33;1.00;;;0.60;;
74851;SDS011;63400;50.650;6.832;2023-03-14T10:56:13;1.10;;;0.52;;
74851;SDS011;63400;50.650;6.832;2023-03-14T10:58:43;1.77;;;0.90;;
74851;SDS011;63400;50.650;6.832;2023-03-14T11:06:41;1.73;;;0.60;;
74851;SDS011;63400;50.650;6.832;2023-03-14T11:11:37;0.88;;;0.30;;
74851;SDS011;63400;50.650;6.832;2023-03-14T11:14:16;1.65;;;0.57;;
74851;SDS011;63400;50.650;6.832;2023-03-14T11:22:28;2.30;;;0.50;;
74851;SDS011;63400;50.650;6.832;2023-03-14T11:25:21;1.95;;;0.90;;
74851;SDS011;63400;50.650;6.832;2023-03-14T11:30:35;1.15;;;0.65;;
74851;SDS011;63400;50.650;6.832;2023-03-14T11:33:15;1.38;;;0.70;;
74851;SDS011;63400;50.650;6.832;2023-03-14T11:35:47;0.90;;;0.50;;
74851;SDS011;63400;50.650;6.832;2023-03-14T11:41:09;1.25;;;0.20;;
74851;SDS011;63400;50.650;6.832;2023-03-14T11:43:40;1.45;;;1.35;;
74851;SDS011;63400;50.650;6.832;2023-03-14T11:51:41;1.10;;;0.38;;
74851;SDS011;63400;50.650;6.832;2023-03-14T11:56:47;1.35;;;0.70;;
74851;SDS011;63400;50.650;6.832;2023-03-14T11:59:27;1.40;;;0.65;;
74851;SDS011;63400;50.650;6.832;2023-03-14T12:02:05;2.47;;;0.40;;
74851;SDS011;63400;50.650;6.832;2023-03-14T12:07:13;1.08;;;0.60;;
74851;SDS011;63400;50.650;6.832;2023-03-14T12:09:45;2.50;;;0.65;;
74851;SDS011;63400;50.650;6.832;2023-03-14T12:12:12;1.30;;;0.32;;
74851;SDS011;63400;50.650;6.832;2023-03-14T12:14:55;0.98;;;0.75;;
74851;SDS011;63400;50.650;6.832;2023-03-14T12:22:50;0.55;;;0.30;;
74851;SDS011;63400;50.650;6.832;2023-03-14T12:25:25;1.67;;;0.30;;
74851;SDS011;63400;50.650;6.832;2023-03-14T12:35:45;1.35;;;0.28;;
74851;SDS011;63400;50.650;6.832;2023-03-14T12:38:40;0.95;;;0.47;;
74851;SDS011;63400;50.650;6.832;2023-03-14T12:41:19;2.00;;;0.55;;
74851;SDS011;63400;50.650;6.832;2023-03-14T12:43:48;1.30;;;0.65;;
74851;SDS011;63400;50.650;6.832;2023-03-14T12:51:36;0.43;;;0.20;;
74851;SDS011;63400;50.650;6.832;2023-03-14T12:54:13;2.13;;;0.43;;
74851;SDS011;63400;50.650;6.832;2023-03-14T13:00:02;0.80;;;0.30;;
74851;SDS011;63400;50.650;6.832;2023-03-14T13:02:42;1.85;;;0.40;;
74851;SDS011;63400;50.650;6.832;2023-03-14T13:05:21;3.03;;;0.93;;
74851;SDS011;63400;50.650;6.832;2023-03-14T13:10:23;0.80;;;0.73;;
74851;SDS011;63400;50.650;6.832;2023-03-14T13:15:57;2.38;;;0.93;;
74851;SDS011;63400;50.650;6.832;2023-03-14T13:21:24;1.45;;;1.27;;
74851;SDS011;63400;50.650;6.832;2023-03-14T13:24:02;1.63;;;0.52;;
74851;SDS011;63400;50.650;6.832;2023-03-14T13:26:39;1.25;;;0.52;;
74851;SDS011;63400;50.650;6.832;2023-03-14T13:29:18;1.58;;;0.38;;
74851;SDS011;63400;50.650;6.832;2023-03-14T13:31:45;0.82;;;0.30;;
74851;SDS011;63400;50.650;6.832;2023-03-14T13:34:12;1.00;;;0.57;;
74851;SDS011;63400;50.650;6.832;2023-03-14T13:36:37;0.85;;;0.65;;
74851;SDS011;63400;50.650;6.832;2023-03-14T13:39:04;0.80;;;0.52;;
74851;SDS011;63400;50.650;6.832;2023-03-14T13:41:37;2.47;;;0.73;;
74851;SDS011;63400;50.650;6.832;2023-03-14T13:44:07;2.45;;;1.02;;
74851;SDS011;63400;50.650;6.832;2023-03-14T13:46:34;1.60;;;0.52;;
74851;SDS011;63400;50.650;6.832;2023-03-14T13:49:02;1.50;;;0.73;;
74851;SDS011;63400;50.650;6.832;2023-03-14T13:51:29;4.47;;;0.55;;
74851;SDS011;63400;50.650;6.832;2023-03-14T13:53:58;2.03;;;0.40;;
74851;SDS011;63400;50.650;6.832;2023-03-14T13:56:28;1.52;;;0.75;;
74851;SDS011;63400;50.650;6.832;2023-03-14T13:58:56;3.30;;;0.47;;
74851;SDS011;63400;50.650;6.832;2023-03-14T14:03:52;1.63;;;0.30;;
74851;SDS011;63400;50.650;6.832;2023-03-14T14:06:32;2.05;;;0.57;;
74851;SDS011;63400;50.650;6.832;2023-03-14T14:09:11;2.72;;;0.75;;
74851;SDS011;63400;50.650;6.832;2023-03-14T14:15:04;2.08;;;0.57;;
74851;SDS011;63400;50.650;6.832;2023-03-14T14:17:46;2.63;;;1.00;;
74851;SDS011;63400;50.650;6.832;2023-03-14T14:20:23;1.05;;;0.70;;
74851;SDS011;63400;50.650;6.832;2023-03-14T14:22:59;0.80;;;0.45;;
74851;SDS011;63400;50.650;6.832;2023-03-14T14:25:27;1.40;;;0.47;;
74851;SDS011;63400;50.650;6.832;2023-03-14T14:27:54;1.08;;;0.60;;
74851;SDS011;63400;50.650;6.832;2023-03-14T14:32:48;1.77;;;0.70;;
74851;SDS011;63400;50.650;6.832;2023-03-14T14:35:26;1.35;;;0.38;;
74851;SDS011;63400;50.650;6.832;2023-03-14T14:37:57;1.45;;;0.20;;
74851;SDS011;63400;50.650;6.832;2023-03-14T14:40:25;3.65;;;0.57;;
74851;SDS011;63400;50.650;6.832;2023-03-14T14:42:52;3.08;;;0.30;;
74851;SDS011;63400;50.650;6.832;2023-03-14T14:45:19;4.05;;;0.75;;
74851;SDS011;63400;50.650;6.832;2023-03-14T14:50:30;1.50;;;0.43;;
74851;SDS011;63400;50.650;6.832;2023-03-14T14:55:55;1.20;;;0.47;;
74851;SDS011;63400;50.650;6.832;2023-03-14T15:00:56;1.92;;;0.50;;
74851;SDS011;63400;50.650;6.832;2023-03-14T15:03:28;2.47;;;1.08;;
74851;SDS011;63400;50.650;6.832;2023-03-14T15:08:21;4.13;;;1.02;;
74851;SDS011;63400;50.650;6.832;2023-03-14T15:10:51;3.60;;;1.98;;
74851;SDS011;63400;50.650;6.832;2023-03-14T15:13:17;5.65;;;1.92;;
74851;SDS011;63400;50.650;6.832;2023-03-14T15:15:43;3.22;;;1.45;;
74851;SDS011;63400;50.650;6.832;2023-03-14T15:18:16;4.20;;;2.22;;
74851;SDS011;63400;50.650;6.832;2023-03-14T15:20:43;4.82;;;2.30;;
74851;SDS011;63400;50.650;6.832;2023-03-14T15:23:10;2.80;;;1.02;;
74851;SDS011;63400;50.650;6.832;2023-03-14T15:25:39;1.33;;;0.70;;
74851;SDS011;63400;50.650;6.832;2023-03-14T15:28:14;1.98;;;0.50;;
74851;SDS011;63400;50.650;6.832;2023-03-14T15:30:42;2.47;;;0.80;;
74851;SDS011;63400;50.650;6.832;2023-03-14T15:33:08;2.47;;;1.20;;
74851;SDS011;63400;50.650;6.832;2023-03-14T15:35:36;0.88;;;0.55;;
74851;SDS011;63400;50.650;6.832;2023-03-14T15:38:01;1.33;;;0.65;;
74851;SDS011;63400;50.650;6.832;2023-03-14T15:40:28;4.60;;;2.05;;
74851;SDS011;63400;50.650;6.832;2023-03-14T15:42:53;1.95;;;0.50;;
74851;SDS011;63400;50.650;6.832;2023-03-14T15:45:19;4.85;;;1.45;;
74851;SDS011;63400;50.650;6.832;2023-03-14T15:47:45;1.52;;;0.73;;
74851;SDS011;63400;50.650;6.832;2023-03-14T15:50:16;3.28;;;1.33;;
74851;SDS011;63400;50.650;6.832;2023-03-14T15:52:44;0.90;;;0.50;;
74851;SDS011;63400;50.650;6.832;2023-03-14T15:55:09;1.42;;;0.80;;
74851;SDS011;63400;50.650;6.832;2023-03-14T15:57:36;2.22;;;0.65;;
74851;SDS011;63400;50.650;6.832;2023-03-14T16:00:02;2.55;;;1.05;;
74851;SDS011;63400;50.650;6.832;2023-03-14T16:02:31;6.43;;;2.15;;
74851;SDS011;63400;50.650;6.832;2023-03-14T16:04:58;2.67;;;0.98;;
74851;SDS011;63400;50.650;6.832;2023-03-14T16:07:24;4.75;;;1.77;;
74851;SDS011;63400;50.650;6.832;2023-03-14T16:09:49;4.68;;;2.80;;
74851;SDS011;63400;50.650;6.832;2023-03-14T16:12:15;4.15;;;1.60;;
74851;SDS011;63400;50.650;6.832;2023-03-14T16:14:40;4.20;;;1.88;;
74851;SDS011;63400;50.650;6.832;2023-03-14T16:17:08;4.30;;;1.45;;
74851;SDS011;63400;50.650;6.832;2023-03-14T16:19:35;3.22;;;1.20;;
74851;SDS011;63400;50.650;6.832;2023-03-14T16:22:01;3.72;;;1.77;;
74851;SDS011;63400;50.650;6.832;2023-03-14T16:24:28;4.25;;;1.55;;
74851;SDS011;63400;50.650;6.832;2023-03-14T16:26:55;4.05;;;0.95;;
74851;SDS011;63400;50.650;6.832;2023-03-14T16:29:21;7.57;;;1.65;;
74851;SDS011;63400;50.650;6.832;2023-03-14T16:31:47;5.28;;;2.13;;
74851;SDS011;63400;50.650;6.832;2023-03-14T16:34:13;2.08;;;0.73;;
74851;SDS011;63400;50.650;6.832;2023-03-14T16:36:38;4.18;;;1.13;;
74851;SDS011;63400;50.650;6.832;2023-03-14T16:39:05;6.43;;;1.05;;